createdAt,value
2023-03-08T00:12:31.484Z,3683.68823
2023-03-08T00:27:34.014Z,2868.28369
2023-03-08T00:42:36.924Z,2182.19458
2023-03-08T00:57:39.201Z,1269.80383
2023-03-08T01:12:41.584Z,775.89142
2023-03-08T01:27:43.961Z,414.88638
2023-03-08T01:42:46.300Z,138.29546
2023-03-08T01:57:48.731Z,18.85847
2023-03-08T02:12:51.067Z,0.89802
2023-03-08T02:27:53.450Z,0
2023-03-08T02:42:55.854Z,0
2023-03-08T02:57:58.247Z,0
2023-03-08T03:13:00.676Z,0
2023-03-08T03:28:03.037Z,0
2023-03-08T03:43:05.507Z,0
2023-03-08T03:58:07.826Z,0
2023-03-08T04:13:10.215Z,0
2023-03-08T04:28:12.731Z,0
2023-03-08T04:43:15.042Z,0
2023-03-08T04:58:17.346Z,0
2023-03-08T05:13:19.719Z,0
2023-03-08T05:28:22.078Z,0
2023-03-08T05:43:24.455Z,0
2023-03-08T05:58:26.753Z,0
2023-03-08T06:13:29.076Z,0
2023-03-08T06:28:31.636Z,0
2023-03-08T06:43:33.986Z,0
2023-03-08T06:58:36.370Z,0
2023-03-08T07:13:38.732Z,0
2023-03-08T07:28:41.057Z,0
2023-03-08T07:58:56.680Z,0
2023-03-08T08:14:01.278Z,0
2023-03-08T08:29:06.100Z,0
2023-03-08T08:44:11.714Z,0
2023-03-08T08:59:16.524Z,0
2023-03-08T09:14:21.026Z,0
2023-03-08T09:29:25.570Z,0
2023-03-08T09:44:30.050Z,0
2023-03-08T09:59:34.373Z,0
2023-03-08T10:14:38.738Z,0
2023-03-08T10:29:43.135Z,0
2023-03-08T10:44:47.601Z,0
2023-03-08T10:59:52.016Z,0
2023-03-08T11:14:56.585Z,0
2023-03-08T11:30:01.021Z,0
2023-03-08T11:45:05.428Z,0
2023-03-08T12:00:09.859Z,0
2023-03-08T12:15:14.236Z,0
2023-03-08T12:30:18.578Z,0
2023-03-08T12:45:22.969Z,0
2023-03-08T13:00:27.486Z,0
2023-03-08T13:15:31.964Z,0
2023-03-08T13:30:36.405Z,0
2023-03-08T13:45:40.874Z,0.89802
2023-03-08T14:00:45.314Z,26.94067
2023-03-08T14:15:49.831Z,225.40364
2023-03-08T14:30:54.376Z,689.68127
2023-03-08T14:45:58.805Z,1362.30005
2023-03-08T15:01:03.145Z,2462.37769
2023-03-08T15:16:07.987Z,26159.39453
2023-03-08T15:31:12.576Z,12042.48145
2023-03-08T15:46:17.190Z,19843.60352
2023-03-08T16:01:21.661Z,10701.7334
2023-03-08T16:16:38.492Z,23004.64258
2023-03-08T16:31:48.841Z,15736.04785
2023-03-08T16:46:53.329Z,11659.92383
2023-03-08T17:01:57.715Z,9699.54102
2023-03-08T17:17:02.300Z,8620.11816
2023-03-08T17:32:06.849Z,10019.23633
2023-03-08T17:47:11.288Z,10264.39648
2023-03-08T18:02:15.897Z,9757.91211
2023-03-08T18:17:18.193Z,17553.64453
2023-03-08T18:32:20.456Z,15580.68945
2023-03-08T18:47:22.775Z,15382.22656
2023-03-08T19:02:27.594Z,16041.375
2023-03-08T19:17:31.047Z,14143.85352
2023-03-08T19:32:33.359Z,18014.33008
2023-03-08T19:47:35.714Z,11994.88574
2023-03-08T20:02:37.938Z,6250.23633
2023-03-08T20:17:40.180Z,17086.67383
2023-03-08T20:32:42.496Z,15201.72461
2023-03-08T20:47:45.202Z,14417.75098
2023-03-08T21:02:47.549Z,8489.9043
2023-03-08T21:17:49.770Z,7151.85107
2023-03-08T21:32:51.994Z,6908.48682
2023-03-08T21:47:54.300Z,6036.50684
2023-03-08T22:02:56.612Z,6045.4873
2023-03-08T22:17:58.906Z,5697.05469
2023-03-08T22:33:01.231Z,6465.76172
2023-03-08T22:48:03.418Z,7311.69873
2023-03-08T23:03:05.728Z,7920.55811
2023-03-08T23:18:08.024Z,11581.7959
2023-03-08T23:33:10.347Z,13746.92773
2023-03-08T23:48:12.588Z,13708.31348
